createdAt,value
2023-03-02T00:01:56.954Z,61.70
2023-03-02T00:04:47.953Z,57.20
2023-03-02T00:07:42.731Z,64.40
2023-03-02T00:10:11.938Z,65.40
2023-03-02T00:12:40.467Z,63.80
2023-03-02T00:15:09.519Z,66.70
2023-03-02T00:17:38.074Z,63.60
2023-03-02T00:20:10.493Z,62.10
2023-03-02T00:22:41.135Z,55.90
2023-03-02T00:25:10.399Z,57.70
2023-03-02T00:27:39.424Z,52.50
2023-03-02T00:30:09.360Z,53.60
2023-03-02T00:32:37.889Z,47.90
2023-03-02T00:35:07.129Z,37.20
2023-03-02T00:37:36.916Z,45.30
2023-03-02T00:40:07.595Z,44.60
2023-03-02T00:42:38.966Z,43.30
2023-03-02T00:45:08.087Z,42.70
2023-03-02T00:47:37.634Z,51.00
2023-03-02T00:50:06.852Z,44.10
2023-03-02T00:52:35.220Z,47.20
2023-03-02T00:55:03.867Z,45.60
2023-03-02T00:57:32.176Z,43.90
2023-03-02T01:00:01.276Z,48.50
2023-03-02T01:02:35.301Z,54.10
2023-03-02T01:05:05.376Z,43.10
2023-03-02T01:07:34.956Z,44.20
2023-03-02T01:10:03.904Z,45.60
2023-03-02T01:12:33.078Z,45.00
2023-03-02T01:15:02.522Z,39.00
2023-03-02T01:17:30.904Z,36.20
2023-03-02T01:19:59.421Z,29.30
2023-03-02T01:22:27.920Z,28.40
2023-03-02T01:24:56.282Z,26.60
2023-03-02T01:27:24.621Z,30.10
2023-03-02T01:29:53.037Z,33.00
2023-03-02T01:32:21.669Z,27.80
2023-03-02T01:34:50.036Z,35.60
2023-03-02T01:37:18.553Z,36.70
2023-03-02T01:39:47.396Z,41.90
2023-03-02T01:42:16.440Z,36.90
2023-03-02T01:44:47.747Z,38.50
2023-03-02T01:47:37.106Z,39.60
2023-03-02T01:50:23.485Z,42.50
2023-03-02T01:52:55.775Z,44.50
2023-03-02T01:55:29.878Z,45.80
2023-03-02T01:58:00.124Z,51.50
2023-03-02T02:00:32.998Z,52.60
2023-03-02T02:03:09.598Z,50.00
2023-03-02T02:05:40.713Z,53.80
2023-03-02T02:08:09.156Z,50.50
2023-03-02T02:10:38.691Z,52.10
2023-03-02T02:13:11.146Z,54.00
2023-03-02T02:15:41.204Z,49.70
2023-03-02T02:18:09.975Z,51.40
2023-03-02T02:20:45.514Z,48.60
2023-03-02T02:23:18.618Z,47.20
2023-03-02T02:28:30.890Z,52.90
2023-03-02T02:31:18.070Z,50.90
2023-03-02T02:33:52.946Z,51.20
2023-03-02T02:36:33.893Z,47.10
2023-03-02T02:39:07.320Z,50.70
2023-03-02T02:41:39.356Z,53.80
2023-03-02T02:44:14.848Z,46.70
2023-03-02T02:46:44.970Z,43.80
2023-03-02T02:49:33.665Z,44.20
2023-03-02T02:52:04.148Z,49.70
2023-03-02T02:54:34.510Z,48.70
2023-03-02T02:57:04.324Z,48.70
2023-03-02T02:59:37.707Z,46.20
2023-03-02T03:02:06.192Z,46.70
2023-03-02T03:04:34.690Z,50.70
2023-03-02T03:07:05.380Z,53.70
2023-03-02T03:09:34.920Z,48.90
2023-03-02T03:12:14.377Z,53.40
2023-03-02T03:14:44.017Z,56.60
2023-03-02T03:17:12.900Z,52.30
2023-03-02T03:19:47.406Z,48.50
2023-03-02T03:22:16.640Z,56.20
2023-03-02T03:24:46.152Z,49.30
2023-03-02T03:27:16.435Z,51.00
2023-03-02T03:29:48.490Z,54.60
2023-03-02T03:32:19.267Z,50.30
2023-03-02T03:34:48.692Z,47.10
2023-03-02T03:37:27.020Z,53.50
2023-03-02T03:39:55.967Z,65.20
2023-03-02T03:42:24.384Z,68.40
2023-03-02T03:44:53.361Z,67.30
2023-03-02T03:47:22.877Z,66.10
2023-03-02T03:49:51.766Z,61.70
2023-03-02T03:52:30.846Z,59.70
2023-03-02T03:55:06.393Z,63.80
2023-03-02T03:57:34.841Z,62.20
2023-03-02T04:00:08.904Z,46.80
2023-03-02T04:02:42.600Z,56.00
2023-03-02T04:05:13.000Z,51.00
2023-03-02T04:07:42.064Z,53.10
2023-03-02T04:10:12.493Z,53.10
2023-03-02T04:12:42.829Z,48.30
2023-03-02T04:15:16.547Z,41.60
2023-03-02T04:17:46.501Z,36.30
2023-03-02T04:20:18.693Z,40.40
2023-03-02T04:22:52.949Z,38.20
2023-03-02T04:25:24.430Z,41.90
2023-03-02T04:27:55.887Z,57.60
2023-03-02T04:30:27.980Z,55.00
2023-03-02T04:32:57.699Z,55.20
2023-03-02T04:35:28.374Z,54.90
2023-03-02T04:37:56.841Z,56.10
2023-03-02T04:40:25.665Z,52.10
2023-03-02T04:42:53.990Z,55.40
2023-03-02T04:45:22.435Z,44.90
2023-03-02T04:47:51.461Z,51.00
2023-03-02T04:50:19.858Z,40.20
2023-03-02T04:52:48.922Z,41.70
2023-03-02T04:55:23.082Z,35.20
2023-03-02T04:57:51.904Z,38.00
2023-03-02T05:00:21.207Z,37.10
2023-03-02T05:02:50.097Z,31.70
2023-03-02T05:05:23.309Z,30.50
2023-03-02T05:07:52.669Z,34.80
2023-03-02T05:10:22.472Z,39.40
2023-03-02T05:13:05.152Z,51.30
2023-03-02T05:15:36.147Z,52.20
2023-03-02T05:18:06.744Z,58.20
2023-03-02T05:20:35.512Z,49.90
2023-03-02T05:23:07.349Z,51.80
2023-03-02T05:25:37.630Z,47.60
2023-03-02T05:28:06.282Z,49.90
2023-03-02T05:30:37.873Z,50.80
2023-03-02T05:33:06.727Z,51.60
2023-03-02T05:35:35.711Z,50.00
2023-03-02T05:38:05.288Z,56.20
2023-03-02T05:40:34.072Z,55.40
2023-03-02T05:43:02.521Z,49.80
2023-03-02T05:45:37.738Z,51.50
2023-03-02T05:48:06.645Z,42.30
2023-03-02T05:50:35.291Z,50.60
2023-03-02T05:53:04.074Z,52.60
2023-03-02T05:55:37.358Z,88.20
2023-03-02T05:58:14.617Z,104.70
2023-03-02T06:00:44.058Z,83.30
2023-03-02T06:03:12.559Z,69.30
2023-03-02T06:05:41.160Z,54.90
2023-03-02T06:08:10.034Z,52.90
2023-03-02T06:10:38.387Z,52.80
2023-03-02T06:13:06.729Z,64.60
2023-03-02T06:15:35.798Z,61.30
2023-03-02T06:18:06.169Z,63.80
2023-03-02T06:20:34.596Z,69.90
2023-03-02T06:23:02.885Z,64.40
2023-03-02T06:25:31.680Z,67.60
2023-03-02T06:27:59.955Z,56.70
2023-03-02T06:30:28.526Z,64.60
2023-03-02T06:32:56.904Z,52.80
2023-03-02T06:35:25.455Z,55.20
2023-03-02T06:37:54.090Z,42.40
2023-03-02T06:40:22.366Z,35.60
2023-03-02T06:42:51.282Z,63.30
2023-03-02T06:45:19.803Z,71.70
2023-03-02T06:47:48.409Z,69.80
2023-03-02T06:50:16.796Z,77.10
2023-03-02T06:52:45.093Z,66.00
2023-03-02T06:55:13.610Z,69.70
2023-03-02T06:57:42.005Z,68.50
2023-03-02T07:00:18.373Z,60.20
2023-03-02T07:02:50.282Z,29.70
2023-03-02T07:05:19.675Z,23.40
2023-03-02T07:07:48.109Z,30.60
2023-03-02T07:10:16.703Z,22.70
2023-03-02T07:12:45.126Z,25.70
2023-03-02T07:15:14.524Z,31.40
2023-03-02T07:17:44.949Z,23.20
2023-03-02T07:20:16.649Z,38.50
2023-03-02T07:22:45.433Z,53.30
2023-03-02T07:25:14.354Z,53.10
2023-03-02T07:27:43.024Z,49.80
2023-03-02T07:30:12.227Z,57.80
2023-03-02T07:32:41.244Z,54.10
2023-03-02T07:35:10.221Z,48.70
2023-03-02T07:37:38.840Z,37.80
2023-03-02T07:40:07.939Z,50.30
2023-03-02T07:42:36.826Z,53.40
2023-03-02T07:45:06.611Z,44.60
2023-03-02T07:47:35.001Z,52.80
2023-03-02T07:50:03.960Z,53.90
2023-03-02T07:52:32.337Z,53.90
2023-03-02T07:55:00.734Z,53.90
2023-03-02T07:57:29.132Z,45.20
2023-03-02T07:59:57.407Z,44.70
2023-03-02T08:02:25.925Z,44.90
2023-03-02T08:04:54.470Z,47.40
2023-03-02T08:07:22.855Z,60.00
2023-03-02T08:09:51.340Z,50.30
2023-03-02T08:12:19.734Z,45.10
2023-03-02T08:14:48.309Z,44.30
2023-03-02T08:17:16.710Z,50.00
2023-03-02T08:19:45.174Z,48.50
2023-03-02T08:22:13.593Z,38.40
2023-03-02T08:24:42.980Z,60.80
2023-03-02T08:27:15.853Z,43.00
2023-03-02T08:29:44.260Z,52.60
2023-03-02T08:32:12.769Z,48.30
2023-03-02T08:34:41.224Z,52.90
2023-03-02T08:37:09.652Z,64.60
2023-03-02T08:39:38.178Z,57.60
2023-03-02T08:42:06.492Z,50.10
2023-03-02T08:44:34.892Z,42.40
2023-03-02T08:47:03.415Z,54.60
2023-03-02T08:49:31.836Z,45.30
2023-03-02T08:52:00.903Z,50.20
2023-03-02T08:54:29.245Z,39.90
2023-03-02T08:56:57.703Z,52.60
2023-03-02T08:59:27.093Z,42.20
2023-03-02T09:01:55.599Z,44.50
2023-03-02T09:04:24.118Z,33.20
2023-03-02T09:06:52.555Z,35.30
2023-03-02T09:09:20.950Z,27.50
2023-03-02T09:11:49.377Z,29.70
2023-03-02T09:14:17.806Z,40.30
2023-03-02T09:16:47.196Z,34.80
2023-03-02T09:19:15.652Z,28.00
2023-03-02T09:21:44.085Z,25.20
2023-03-02T09:24:12.592Z,27.80
2023-03-02T09:26:41.058Z,22.80
2023-03-02T09:29:09.621Z,30.60
2023-03-02T09:31:38.659Z,22.80
2023-03-02T09:34:07.201Z,23.60
2023-03-02T09:36:36.791Z,24.50
2023-03-02T09:39:12.501Z,27.90
2023-03-02T09:42:12.275Z,21.10
2023-03-02T09:45:06.552Z,15.20
2023-03-02T09:47:56.521Z,14.80
2023-03-02T09:50:32.631Z,15.00
2023-03-02T09:53:24.550Z,14.00
2023-03-02T09:56:00.449Z,16.20
2023-03-02T09:58:36.097Z,12.90
2023-03-02T10:01:12.565Z,14.20
2023-03-02T10:03:51.454Z,14.60
2023-03-02T10:06:20.085Z,17.00
2023-03-02T10:08:54.170Z,13.50
2023-03-02T10:11:25.619Z,14.80
2023-03-02T10:13:53.924Z,13.80
2023-03-02T10:17:02.057Z,15.60
2023-03-02T10:19:47.960Z,12.40
2023-03-02T10:22:24.282Z,16.00
2023-03-02T10:25:13.384Z,15.60
2023-03-02T10:27:51.968Z,11.20
2023-03-02T10:30:35.600Z,13.40
2023-03-02T10:33:12.356Z,11.70
2023-03-02T10:35:48.546Z,13.90
2023-03-02T10:38:19.982Z,17.80
2023-03-02T10:40:48.539Z,16.40
2023-03-02T10:43:30.461Z,20.10
2023-03-02T10:46:04.836Z,13.50
2023-03-02T10:48:49.342Z,13.20
2023-03-02T10:51:29.724Z,15.40
2023-03-02T10:54:05.024Z,14.20
2023-03-02T10:56:34.862Z,15.00
2023-03-02T10:59:19.768Z,11.10
2023-03-02T11:02:18.572Z,13.80
2023-03-02T11:04:47.177Z,15.30
2023-03-02T11:07:18.982Z,12.20
2023-03-02T11:10:04.980Z,16.70
2023-03-02T11:12:37.090Z,18.20
2023-03-02T11:15:28.742Z,14.10
2023-03-02T11:18:34.412Z,15.20
2023-03-02T11:21:06.654Z,13.30
2023-03-02T11:24:17.219Z,16.10
2023-03-02T11:26:50.829Z,13.30
2023-03-02T11:29:31.951Z,11.40
2023-03-02T11:32:11.859Z,13.70
2023-03-02T11:34:56.768Z,13.20
2023-03-02T11:37:45.644Z,14.20
2023-03-02T11:40:36.434Z,10.20
2023-03-02T11:43:05.210Z,9.90
2023-03-02T11:45:37.188Z,10.50
2023-03-02T11:48:24.085Z,11.00
2023-03-02T11:50:57.591Z,12.50
2023-03-02T11:53:51.901Z,14.70
2023-03-02T11:56:20.468Z,12.50
2023-03-02T11:58:55.114Z,14.30
2023-03-02T12:01:27.034Z,12.10
2023-03-02T12:04:08.254Z,16.40
2023-03-02T12:06:42.314Z,11.80
2023-03-02T12:09:22.846Z,10.10
2023-03-02T12:12:18.609Z,9.80
2023-03-02T12:14:47.028Z,13.00
2023-03-02T12:17:27.326Z,14.00
2023-03-02T12:20:10.151Z,11.90
2023-03-02T12:22:39.102Z,9.40
2023-03-02T12:25:27.369Z,13.10
2023-03-02T12:27:58.800Z,14.90
2023-03-02T12:30:28.656Z,9.70
2023-03-02T12:33:11.141Z,12.30
2023-03-02T12:35:40.336Z,11.10
2023-03-02T12:38:17.629Z,11.70
2023-03-02T12:41:04.295Z,11.70
2023-03-02T12:43:35.583Z,12.90
2023-03-02T12:46:27.853Z,11.80
2023-03-02T12:49:15.548Z,12.70
2023-03-02T12:51:55.048Z,15.30
2023-03-02T12:54:25.988Z,12.20
2023-03-02T12:57:14.260Z,14.50
2023-03-02T12:59:43.682Z,12.00
2023-03-02T13:02:17.654Z,14.50
2023-03-02T13:05:03.655Z,15.20
2023-03-02T13:07:38.271Z,10.10
2023-03-02T13:10:27.034Z,12.00
2023-03-02T13:12:55.532Z,10.30
2023-03-02T13:15:24.293Z,13.40
2023-03-02T13:17:58.209Z,13.20
2023-03-02T13:20:30.424Z,11.00
2023-03-02T13:22:59.269Z,10.30
2023-03-02T13:25:30.640Z,10.90
2023-03-02T13:28:07.538Z,10.50
2023-03-02T13:30:41.923Z,13.40
2023-03-02T13:33:22.799Z,9.40
2023-03-02T13:35:52.725Z,15.10
2023-03-02T13:38:26.605Z,15.30
2023-03-02T13:40:56.081Z,15.30
2023-03-02T13:43:34.269Z,12.20
2023-03-02T13:46:24.407Z,12.00
2023-03-02T13:49:10.774Z,13.10
2023-03-02T13:51:45.808Z,9.90
2023-03-02T13:54:25.732Z,15.10
2023-03-02T13:56:55.566Z,11.60
2023-03-02T13:59:24.355Z,13.50
2023-03-02T14:01:53.387Z,14.10
2023-03-02T14:04:23.704Z,13.10
2023-03-02T14:06:54.858Z,9.60
2023-03-02T14:09:23.264Z,13.10
2023-03-02T14:11:55.422Z,17.30
2023-03-02T14:14:26.615Z,12.20
2023-03-02T14:16:58.461Z,12.00
2023-03-02T14:19:27.284Z,12.00
2023-03-02T14:21:55.631Z,13.30
2023-03-02T14:24:24.247Z,15.70
2023-03-02T14:26:52.658Z,14.70
2023-03-02T14:29:28.598Z,14.80
2023-03-02T14:32:04.150Z,19.00
2023-03-02T14:34:35.985Z,12.40
2023-03-02T14:37:08.050Z,13.20
2023-03-02T14:39:39.372Z,16.30
2023-03-02T14:42:20.004Z,15.50
2023-03-02T14:44:50.369Z,15.30
2023-03-02T14:47:19.805Z,14.20
2023-03-02T14:49:49.457Z,13.30
2023-03-02T14:52:26.544Z,11.20
2023-03-02T14:54:59.049Z,10.30
2023-03-02T14:57:29.803Z,13.40
2023-03-02T15:00:00.130Z,16.50
2023-03-02T15:02:28.916Z,13.20
2023-03-02T15:04:57.795Z,14.40
2023-03-02T15:07:28.200Z,10.20
2023-03-02T15:09:58.294Z,14.10
2023-03-02T15:12:27.362Z,13.30
2023-03-02T15:14:57.674Z,9.50
2023-03-02T15:17:26.887Z,16.20
2023-03-02T15:19:55.231Z,12.40
2023-03-02T15:22:23.682Z,14.90
2023-03-02T15:24:52.056Z,12.90
2023-03-02T15:27:22.850Z,15.30
2023-03-02T15:29:51.376Z,12.20
2023-03-02T15:32:20.267Z,14.30
2023-03-02T15:34:48.609Z,13.10
2023-03-02T15:37:17.303Z,11.20
2023-03-02T15:39:45.818Z,11.50
2023-03-02T15:42:14.217Z,17.20
2023-03-02T15:44:42.630Z,14.60
2023-03-02T15:47:11.402Z,12.80
2023-03-02T15:49:40.031Z,15.40
2023-03-02T15:52:10.017Z,19.30
2023-03-02T15:54:38.381Z,17.10
2023-03-02T15:57:07.463Z,12.10
2023-03-02T15:59:36.079Z,10.50
2023-03-02T16:02:04.646Z,12.40
2023-03-02T16:04:34.219Z,17.10
2023-03-02T16:07:02.854Z,13.80
2023-03-02T16:09:31.612Z,16.50
2023-03-02T16:12:00.095Z,12.80
2023-03-02T16:14:28.826Z,15.60
2023-03-02T16:16:57.346Z,14.60
2023-03-02T16:19:25.901Z,12.50
2023-03-02T16:21:54.270Z,12.90
2023-03-02T16:24:22.732Z,14.40
2023-03-02T16:26:53.227Z,14.40
2023-03-02T16:29:24.282Z,12.90
2023-03-02T16:31:53.536Z,15.20
2023-03-02T16:34:21.930Z,14.70
2023-03-02T16:36:50.297Z,19.90
2023-03-02T16:39:18.767Z,17.50
2023-03-02T16:41:47.541Z,17.80
2023-03-02T16:44:17.485Z,27.60
2023-03-02T16:46:46.426Z,24.50
2023-03-02T16:49:15.035Z,18.60
2023-03-02T16:51:44.042Z,17.40
2023-03-02T16:54:16.228Z,18.90
2023-03-02T16:56:47.528Z,20.10
2023-03-02T16:59:18.525Z,30.50
2023-03-02T17:01:46.958Z,26.70
2023-03-02T17:04:18.538Z,24.60
2023-03-02T17:07:03.127Z,29.00
2023-03-02T17:09:34.521Z,23.90
2023-03-02T17:12:03.384Z,29.30
2023-03-02T17:14:31.743Z,27.90
2023-03-02T17:17:01.484Z,25.50
2023-03-02T17:19:29.994Z,30.80
2023-03-02T17:22:03.623Z,29.40
2023-03-02T17:24:33.412Z,30.40
2023-03-02T17:27:02.096Z,32.80
2023-03-02T17:29:30.516Z,34.00
2023-03-02T17:31:58.948Z,29.50
2023-03-02T17:34:31.294Z,25.70
2023-03-02T17:37:00.937Z,33.70
2023-03-02T17:39:29.540Z,33.00
2023-03-02T17:41:57.941Z,32.90
2023-03-02T17:44:27.660Z,34.80
2023-03-02T17:46:56.025Z,34.20
2023-03-02T17:49:24.381Z,38.10
2023-03-02T17:51:52.783Z,37.20
2023-03-02T17:54:21.305Z,49.60
2023-03-02T17:56:49.678Z,53.20
2023-03-02T17:59:18.078Z,50.80
2023-03-02T18:01:46.513Z,98.10
2023-03-02T18:04:15.088Z,156.00
2023-03-02T18:06:43.594Z,110.10
2023-03-02T18:09:12.190Z,87.90
2023-03-02T18:11:43.955Z,112.90
2023-03-02T18:14:17.682Z,59.40
2023-03-02T18:16:46.664Z,44.50
2023-03-02T18:19:15.122Z,142.50
2023-03-02T18:21:43.509Z,79.60
2023-03-02T18:24:12.061Z,63.80
2023-03-02T18:26:40.887Z,76.30
2023-03-02T18:29:09.560Z,64.70
2023-03-02T18:31:38.078Z,58.30
2023-03-02T18:34:06.685Z,110.80
2023-03-02T18:36:35.152Z,80.10
2023-03-02T18:39:04.248Z,63.70
2023-03-02T18:41:32.962Z,48.90
2023-03-02T18:44:02.780Z,67.10
2023-03-02T18:46:33.315Z,52.20
2023-03-02T18:49:01.920Z,63.10
2023-03-02T18:51:31.556Z,56.30
2023-03-02T18:54:00.103Z,49.70
2023-03-02T18:56:28.608Z,45.00
2023-03-02T18:58:57.065Z,46.30
2023-03-02T19:01:25.530Z,55.10
2023-03-02T19:03:56.954Z,75.30
2023-03-02T19:06:25.555Z,70.70
2023-03-02T19:08:54.354Z,54.70
2023-03-02T19:11:23.028Z,58.80
2023-03-02T19:13:52.107Z,43.50
2023-03-02T19:16:20.832Z,45.90
2023-03-02T19:18:50.233Z,47.50
2023-03-02T19:21:19.240Z,49.10
2023-03-02T19:23:48.281Z,48.40
2023-03-02T19:26:17.412Z,50.40
2023-03-02T19:28:46.513Z,50.30
2023-03-02T19:31:16.108Z,49.30
2023-03-02T19:33:45.500Z,47.80
2023-03-02T19:36:14.598Z,55.30
2023-03-02T19:38:44.615Z,61.60
2023-03-02T19:41:16.793Z,60.50
2023-03-02T19:43:46.223Z,61.20
2023-03-02T19:46:16.203Z,72.70
2023-03-02T19:48:45.129Z,77.50
2023-03-02T19:51:15.411Z,57.70
2023-03-02T19:53:46.111Z,68.80
2023-03-02T19:56:16.369Z,68.00
2023-03-02T19:58:50.398Z,67.80
2023-03-02T20:01:24.834Z,57.60
2023-03-02T20:03:54.681Z,62.20
2023-03-02T20:06:26.365Z,53.60
2023-03-02T20:08:54.835Z,57.30
2023-03-02T20:11:25.220Z,60.30
2023-03-02T20:13:53.708Z,58.50
2023-03-02T20:16:23.016Z,61.70
2023-03-02T20:18:52.519Z,60.90
2023-03-02T20:21:21.427Z,63.70
2023-03-02T20:23:50.663Z,62.20
2023-03-02T20:26:19.484Z,68.70
2023-03-02T20:28:48.552Z,64.50
2023-03-02T20:31:18.193Z,60.50
2023-03-02T20:33:50.230Z,57.40
2023-03-02T20:36:26.837Z,57.90
2023-03-02T20:39:09.720Z,57.20
2023-03-02T20:41:38.627Z,54.40
2023-03-02T20:44:08.032Z,54.00
2023-03-02T20:46:40.615Z,54.50
2023-03-02T20:49:10.924Z,62.40
2023-03-02T20:51:41.128Z,65.60
2023-03-02T20:54:10.146Z,60.80
2023-03-02T20:56:38.563Z,55.30
2023-03-02T20:59:07.096Z,62.60
2023-03-02T21:01:35.794Z,59.80
2023-03-02T21:04:04.557Z,58.90
2023-03-02T21:06:34.816Z,132.80
2023-03-02T21:09:05.926Z,78.30
2023-03-02T21:11:35.394Z,61.80
2023-03-02T21:14:04.083Z,50.70
2023-03-02T21:16:37.225Z,65.50
2023-03-02T21:21:42.095Z,54.20
2023-03-02T21:24:13.516Z,50.10
2023-03-02T21:26:44.391Z,51.80
2023-03-02T21:29:13.655Z,49.80
2023-03-02T21:31:43.960Z,49.40
2023-03-02T21:34:13.533Z,51.50
2023-03-02T21:36:43.539Z,42.30
2023-03-02T21:39:12.208Z,46.10
2023-03-02T21:41:40.753Z,46.00
2023-03-02T21:44:09.938Z,52.50
2023-03-02T21:46:39.687Z,46.50
2023-03-02T21:49:08.228Z,52.90
2023-03-02T21:51:37.168Z,67.00
2023-03-02T21:54:05.748Z,84.90
2023-03-02T21:56:34.248Z,69.20
2023-03-02T21:59:04.188Z,56.00
2023-03-02T22:01:33.979Z,55.00
2023-03-02T22:04:02.564Z,61.10
2023-03-02T22:06:33.248Z,82.60
2023-03-02T22:09:02.687Z,46.30
2023-03-02T22:11:34.839Z,46.90
2023-03-02T22:14:13.054Z,39.80
2023-03-02T22:16:45.212Z,45.90
2023-03-02T22:19:32.746Z,38.10
2023-03-02T22:22:03.469Z,42.20
2023-03-02T22:24:34.064Z,39.80
2023-03-02T22:27:21.168Z,48.30
2023-03-02T22:29:50.870Z,38.90
2023-03-02T22:32:24.114Z,38.70
2023-03-02T22:34:58.673Z,40.80
2023-03-02T22:37:29.354Z,40.20
2023-03-02T22:40:02.089Z,39.50
2023-03-02T22:42:31.216Z,39.50
2023-03-02T22:45:06.787Z,40.20
2023-03-02T22:47:35.214Z,42.50
2023-03-02T22:50:22.529Z,53.10
2023-03-02T22:52:51.837Z,51.20
2023-03-02T22:55:35.660Z,43.50
2023-03-02T22:58:30.954Z,44.90
2023-03-02T23:01:00.933Z,54.10
2023-03-02T23:03:41.018Z,44.90
2023-03-02T23:06:47.371Z,52.10
2023-03-02T23:09:21.176Z,39.50
2023-03-02T23:11:51.128Z,39.60
2023-03-02T23:14:30.177Z,41.70
2023-03-02T23:17:22.260Z,39.20
2023-03-02T23:19:51.529Z,48.80
2023-03-02T23:22:20.077Z,49.00
2023-03-02T23:24:48.647Z,47.00
2023-03-02T23:27:17.084Z,46.40
2023-03-02T23:29:45.543Z,43.10
2023-03-02T23:32:14.703Z,45.40
2023-03-02T23:34:43.416Z,42.20
2023-03-02T23:37:12.068Z,42.30
2023-03-02T23:39:40.542Z,38.90
2023-03-02T23:42:09.364Z,42.10
2023-03-02T23:44:37.821Z,42.50
2023-03-02T23:47:06.291Z,36.10
2023-03-02T23:49:34.736Z,46.10
2023-03-02T23:52:03.774Z,44.70
2023-03-02T23:54:32.183Z,36.60
2023-03-02T23:57:00.671Z,47.10
2023-03-02T23:59:29.216Z,45.20
